首页
METAR-TAF:

METAR-TAF

机场 :

傑克遜維爾, 北卡罗来纳州, 美国

纬度: 34-42-21N, 经度: 077-26-27W, 海拔: 7米

当前天气观测

该预报发布于19分钟前的13:56 UTC
风速5节,风向西转西南
温度 27°C
湿度 84%
气压 1018 hPa
能見度: 16.1公里
少量云层高于2000英尺
散云层高于7000英尺
散云层高于20000英尺

METAR: KNCA 201356Z 24005KT 10SM FEW020 SCT070 SCT200 27/24 A3005 RMK AO2 SLP179 T02720244

时间: 10:15 (14:15 UTC)

预报

预报有效从20日的 12点(UTC)到 21日的 09点(UTC)
风速5节,风向西转西南
能见度10公里或以上
少量云层高于2000英尺
多云层高于5000英尺
阴天层高于11000英尺
短暂存在
从 20日的 09点(UTC)到 20日的 15点(UTC)
风速15节,风向多变,有时为30节阵风
能見度: 6000
多云层高于2000英尺, 积雨云.
多云层高于5000英尺
阴天层高于10000英尺
雷暴, 小雨, 轻雾
从 20日的 1400点(UTC)
风速6节,风向多变
能见度10公里或以上
多云层高于3000英尺
阴天层高于5000英尺
短暂存在
从 21日的 03点(UTC)到 21日的 09点(UTC)
风速15节,风向多变,有时为40节阵风
能見度: 1252
多云层高于2500英尺, 积雨云.
阴天层高于6000英尺
雷暴, 雨

TAF: KNCA 2012/2109 24005KT 9999 FEW020 BKN050 OVC110 QNH2998INS TEMPO 2009/2015 VRB15G30KT 6000 -TSRA BR BKN020CB BKN050 OVC100 FM201400 VRB06KT 9999 BKN030 OVC050 QNH2997INS TEMPO 2103/2109 VRB15G40KT 4800 TSRA BKN025CB OVC060 T32/2016Z T24/2109Z AMD 1252

超过4000个机场的气象观测和天气预报(METAR&TAF报告)。

可查询的气象台以黄色和红色小点在地图上表示。

将鼠标移到小点上方,可查看气象台名称。

然后点击查看天气观测和预报。

如需切换地图:点击带黑十字的绿色按钮放大地图;点击带横线的绿色按钮缩小地图;或者点击绿色箭头查看邻近地区的地图。


METAR-TAF: